Time;durP1;ratioP1;P1;durP2;ratioP2;P2;SDS_P1;SDS_P2;PMS_P1;PMS_P2;Temp;Humidity;BMP_temperature;BMP_pressure;BME280_temperature;BME280_humidity;BME280_pressure;Samples;Min_cycle;Max_cycle;Signal;HPM_P1;HPM_P2
2021/10/21 00:00:08;;;;;;;7.47;6.27;;;14.70;99.90;;;;;;5021041;28;20391;-81
2021/10/21 00:02:34;;;;;;;8.20;5.90;;;14.70;99.90;;;;;;5020132;28;20436;-82
2021/10/21 00:04:59;;;;;;;6.10;5.50;;;14.70;99.90;;;;;;5021944;28;20475;-81
2021/10/21 00:07:25;;;;;;;6.70;5.97;;;14.70;99.90;;;;;;5020884;28;20438;-82
2021/10/21 00:09:51;;;;;;;5.97;5.37;;;14.80;99.90;;;;;;5021862;28;20207;-81
2021/10/21 00:12:17;;;;;;;5.97;5.47;;;14.80;99.90;;;;;;5021518;28;20215;-82
2021/10/21 00:14:43;;;;;;;6.30;5.40;;;14.80;99.90;;;;;;5021236;28;20244;-81
2021/10/21 00:17:09;;;;;;;4.87;4.43;;;14.90;99.90;;;;;;5019448;28;20157;-82
2021/10/21 00:19:34;;;;;;;5.20;4.77;;;14.90;99.90;;;;;;5021551;28;20170;-82
2021/10/21 00:22:00;;;;;;;6.10;4.90;;;14.90;99.90;;;;;;5021344;28;20765;-82
2021/10/21 00:24:26;;;;;;;5.97;5.47;;;14.90;99.90;;;;;;5021421;28;20180;-82
2021/10/21 00:26:52;;;;;;;6.30;5.70;;;14.90;99.90;;;;;;5021520;28;20518;-82
2021/10/21 00:29:18;;;;;;;6.57;6.00;;;14.90;99.90;;;;;;5021736;28;20193;-82
2021/10/21 00:31:43;;;;;;;7.23;4.73;;;14.90;99.90;;;;;;5025293;28;20264;-82
2021/10/21 00:34:09;;;;;;;5.30;4.80;;;14.90;99.90;;;;;;5026749;28;20225;-81
2021/10/21 00:36:35;;;;;;;10.00;6.37;;;14.80;99.90;;;;;;5023746;28;20162;-82
2021/10/21 00:39:01;;;;;;;6.20;5.00;;;14.80;99.90;;;;;;5022541;28;20166;-82
2021/10/21 00:41:30;;;;;;;5.77;5.27;;;14.70;99.90;;;;;;5025708;28;20180;-82
2021/10/21 00:44:12;;;;;;;8.80;5.50;;;14.70;99.90;;;;;;5026866;28;20165;-82
2021/10/21 00:46:40;;;;;;;5.33;4.80;;;14.70;99.90;;;;;;5026368;28;20455;-81
2021/10/21 00:49:07;;;;;;;5.90;5.40;;;14.70;99.90;;;;;;5023702;28;20448;-82
2021/10/21 00:51:34;;;;;;;7.97;7.00;;;14.70;99.90;;;;;;5021267;28;20400;-82
2021/10/21 00:54:01;;;;;;;4.90;4.40;;;14.70;99.90;;;;;;5020893;28;20400;-81
2021/10/21 00:56:28;;;;;;;5.13;4.47;;;14.70;99.90;;;;;;5023340;28;20746;-82
2021/10/21 00:58:54;;;;;;;7.17;5.13;;;14.70;99.90;;;;;;5024984;28;20404;-82
2021/10/21 01:01:21;;;;;;;6.17;4.47;;;14.70;99.90;;;;;;5023777;28;20849;-82
2021/10/21 01:03:49;;;;;;;6.67;5.73;;;14.60;99.90;;;;;;5022080;28;20392;-82
2021/10/21 01:06:15;;;;;;;5.97;5.33;;;14.60;99.90;;;;;;5020647;28;20861;-81
2021/10/21 01:08:42;;;;;;;7.03;4.90;;;14.60;99.90;;;;;;5020277;28;20451;-82
2021/10/21 01:11:09;;;;;;;5.67;5.17;;;14.60;99.90;;;;;;5021146;28;20269;-82
2021/10/21 01:13:37;;;;;;;6.20;5.17;;;14.50;99.90;;;;;;5020658;28;20400;-82
2021/10/21 01:16:05;;;;;;;6.43;5.53;;;14.40;99.90;;;;;;5020577;28;20446;-82
2021/10/21 01:18:33;;;;;;;7.87;5.27;;;14.40;99.90;;;;;;5019978;28;20439;-82
2021/10/21 01:20:59;;;;;;;4.63;4.23;;;14.30;99.90;;;;;;5020904;28;20858;-82
2021/10/21 01:23:26;;;;;;;10.57;4.20;;;14.30;99.90;;;;;;5021613;28;20404;-82
2021/10/21 01:25:52;;;;;;;6.13;4.60;;;14.30;99.90;;;;;;5021413;28;20393;-82
2021/10/21 01:28:18;;;;;;;5.97;5.20;;;14.30;99.90;;;;;;5018750;28;20471;-82
2021/10/21 01:30:44;;;;;;;6.37;5.70;;;14.20;99.90;;;;;;5020742;28;20397;-81
2021/10/21 01:33:10;;;;;;;6.73;5.67;;;14.20;99.90;;;;;;5020694;28;20169;-81
2021/10/21 01:35:37;;;;;;;8.70;6.00;;;14.20;99.90;;;;;;5019470;28;20259;-81
2021/10/21 01:38:03;;;;;;;7.40;6.70;;;14.20;99.90;;;;;;5018671;28;20888;-81
2021/10/21 01:40:29;;;;;;;6.63;5.40;;;14.10;99.90;;;;;;5020496;28;20393;-82
2021/10/21 01:42:55;;;;;;;6.80;5.40;;;14.10;99.90;;;;;;5020412;28;20458;-81
2021/10/21 01:45:23;;;;;;;6.10;5.50;;;14.10;99.90;;;;;;5020479;28;20404;-81
2021/10/21 01:47:50;;;;;;;11.57;5.80;;;14.10;99.90;;;;;;5021621;28;20204;-81
2021/10/21 01:50:17;;;;;;;5.47;4.90;;;14.10;99.90;;;;;;5024258;28;20717;-81
2021/10/21 01:52:43;;;;;;;6.90;6.10;;;14.10;99.90;;;;;;5020139;28;20415;-81
2021/10/21 01:55:11;;;;;;;7.40;5.27;;;14.10;99.90;;;;;;5020562;28;20401;-81
2021/10/21 01:57:38;;;;;;;5.90;4.73;;;14.10;99.90;;;;;;5020732;28;20456;-80
2021/10/21 02:00:08;;;;;;;7.00;4.30;;;14.10;99.90;;;;;;5020713;28;20411;-82
2021/10/21 02:02:34;;;;;;;4.50;3.93;;;14.10;99.90;;;;;;5021655;28;20484;-82
2021/10/21 02:04:59;;;;;;;4.33;3.93;;;14.10;99.90;;;;;;5021065;28;20439;-81
2021/10/21 02:07:25;;;;;;;4.53;4.13;;;14.10;99.90;;;;;;5021799;28;20216;-81
2021/10/21 02:09:51;;;;;;;4.63;4.20;;;14.10;99.90;;;;;;5022270;28;20260;-82
2021/10/21 02:12:17;;;;;;;4.73;4.23;;;14.10;99.90;;;;;;5021382;28;20170;-79
2021/10/21 02:14:42;;;;;;;3.23;2.93;;;14.10;99.90;;;;;;5020037;28;20188;-82
2021/10/21 02:17:09;;;;;;;3.97;3.67;;;14.20;99.90;;;;;;5019789;28;20162;-81
2021/10/21 02:19:35;;;;;;;3.27;3.03;;;14.10;99.90;;;;;;5019639;28;20165;-82
2021/10/21 02:22:02;;;;;;;3.93;3.30;;;14.00;99.90;;;;;;5019984;28;20522;-82
2021/10/21 02:24:28;;;;;;;3.27;3.03;;;14.00;99.90;;;;;;5020352;28;20397;-82
2021/10/21 02:26:54;;;;;;;3.37;3.07;;;14.00;99.90;;;;;;5020489;28;20768;-81
2021/10/21 02:29:19;;;;;;;5.23;3.23;;;14.00;99.90;;;;;;5020171;28;20517;-80
2021/10/21 02:31:45;;;;;;;3.10;2.90;;;14.00;99.90;;;;;;5019209;28;20405;-82
2021/10/21 02:34:11;;;;;;;3.03;2.73;;;14.00;99.90;;;;;;5019560;28;20239;-81
2021/10/21 02:36:37;;;;;;;7.33;3.10;;;14.00;99.90;;;;;;5019678;28;20165;-82
2021/10/21 02:39:04;;;;;;;3.93;3.63;;;13.90;99.90;;;;;;5021269;28;20165;-82
2021/10/21 02:41:29;;;;;;;4.40;3.40;;;13.90;99.90;;;;;;5021452;28;20400;-82
2021/10/21 02:43:55;;;;;;;3.20;2.53;;;13.80;99.90;;;;;;5020328;28;20504;-81
2021/10/21 02:46:21;;;;;;;6.17;4.07;;;13.60;99.90;;;;;;5019946;28;20166;-82
2021/10/21 02:48:47;;;;;;;3.70;3.20;;;13.70;99.90;;;;;;5019850;28;20283;-82
2021/10/21 02:51:13;;;;;;;3.93;3.57;;;13.70;99.90;;;;;;5019416;28;20153;-82
2021/10/21 02:53:39;;;;;;;3.83;3.53;;;13.60;99.90;;;;;;5019300;28;20396;-81
2021/10/21 02:56:05;;;;;;;5.60;3.80;;;13.60;99.90;;;;;;5019912;28;20462;-81
2021/10/21 02:58:31;;;;;;;5.17;3.63;;;13.60;99.90;;;;;;5019385;28;20521;-80
2021/10/21 03:00:57;;;;;;;3.87;3.10;;;13.60;99.90;;;;;;5018436;28;20600;-82
2021/10/21 03:03:23;;;;;;;3.93;3.40;;;13.60;99.90;;;;;;5019662;28;20545;-82
2021/10/21 03:05:48;;;;;;;3.50;2.83;;;13.60;99.90;;;;;;5020010;28;20392;-82
2021/10/21 03:08:14;;;;;;;6.43;3.73;;;13.60;99.90;;;;;;5019740;28;20474;-83
2021/10/21 03:10:40;;;;;;;3.63;3.13;;;13.60;99.90;;;;;;5017894;28;20158;-81
2021/10/21 03:13:07;;;;;;;2.50;2.30;;;13.60;99.90;;;;;;5017917;28;20162;-81
2021/10/21 03:15:33;;;;;;;4.70;2.40;;;13.60;99.90;;;;;;5019992;28;20248;-82
2021/10/21 03:17:58;;;;;;;2.63;2.43;;;13.60;99.90;;;;;;5020450;28;20416;-80
2021/10/21 03:20:25;;;;;;;2.70;2.30;;;13.50;99.90;;;;;;5019369;28;20184;-81
2021/10/21 03:22:51;;;;;;;3.07;2.57;;;13.50;99.90;;;;;;5019571;28;20181;-82
2021/10/21 03:25:17;;;;;;;2.23;1.90;;;13.50;99.90;;;;;;5017893;28;20401;-82
2021/10/21 03:27:43;;;;;;;2.70;2.50;;;13.50;99.90;;;;;;5019053;28;20188;-82
2021/10/21 03:30:10;;;;;;;2.27;2.03;;;13.60;99.90;;;;;;5018376;28;20407;-83
2021/10/21 03:32:36;;;;;;;3.00;2.70;;;13.50;99.90;;;;;;5019020;28;20546;-81
2021/10/21 03:35:02;;;;;;;2.57;2.20;;;13.60;99.90;;;;;;5018745;28;20547;-79
2021/10/21 03:37:28;;;;;;;2.60;2.37;;;13.50;99.90;;;;;;5018335;28;20396;-81
2021/10/21 03:39:54;;;;;;;2.70;2.50;;;13.60;99.90;;;;;;5019227;28;20772;-82
2021/10/21 03:42:22;;;;;;;2.43;2.10;;;13.70;99.90;;;;;;5020185;28;20396;-82
2021/10/21 03:44:49;;;;;;;3.00;2.70;;;13.90;99.90;;;;;;5019326;28;20166;-82
2021/10/21 03:47:16;;;;;;;2.57;2.33;;;13.80;99.90;;;;;;5015997;28;20512;-82
2021/10/21 03:49:42;;;;;;;2.37;2.20;;;13.80;99.90;;;;;;5023107;28;20987;-82
2021/10/21 03:52:08;;;;;;;2.60;2.10;;;13.80;99.90;;;;;;5023919;28;20455;-81
2021/10/21 03:54:33;;;;;;;2.70;2.50;;;13.90;99.90;;;;;;5024044;28;20169;-81
2021/10/21 03:56:59;;;;;;;5.90;3.60;;;13.90;99.90;;;;;;5023045;28;20197;-82
2021/10/21 03:59:25;;;;;;;2.60;2.40;;;14.00;99.90;;;;;;5022868;28;20165;-82
2021/10/21 04:01:53;;;;;;;5.27;2.70;;;14.10;99.90;;;;;;5022673;28;20192;-80
2021/10/21 04:04:19;;;;;;;2.47;2.17;;;14.10;99.90;;;;;;5022952;28;20512;-82
2021/10/21 04:06:45;;;;;;;3.70;3.20;;;14.20;99.90;;;;;;5022518;28;20877;-82
2021/10/21 04:09:11;;;;;;;3.13;2.83;;;14.20;99.90;;;;;;5023113;28;20471;-81
2021/10/21 04:11:37;;;;;;;4.93;3.10;;;14.20;99.90;;;;;;5023206;28;20257;-82
2021/10/21 04:14:03;;;;;;;3.60;3.30;;;14.30;99.90;;;;;;5022244;28;20182;-81
2021/10/21 04:16:29;;;;;;;3.33;3.03;;;14.40;99.90;;;;;;5021865;28;20181;-82
2021/10/21 04:18:55;;;;;;;3.57;2.90;;;14.40;99.90;;;;;;5021995;28;20180;-81
2021/10/21 04:21:21;;;;;;;2.87;2.67;;;14.40;99.90;;;;;;5021703;28;20474;-81
2021/10/21 04:23:47;;;;;;;4.10;3.00;;;14.40;99.90;;;;;;5021869;28;20669;-81
2021/10/21 04:26:12;;;;;;;3.63;3.33;;;14.40;99.90;;;;;;5024327;28;20432;-80
2021/10/21 04:28:38;;;;;;;3.30;3.00;;;14.40;99.90;;;;;;5026111;28;20444;-80
2021/10/21 04:31:05;;;;;;;3.70;3.20;;;14.50;99.90;;;;;;5025243;28;20166;-81
2021/10/21 04:33:30;;;;;;;5.03;3.00;;;14.40;99.90;;;;;;5025263;28;20165;-81
2021/10/21 04:35:57;;;;;;;3.23;2.97;;;14.50;99.90;;;;;;5025251;28;20446;-81
2021/10/21 04:38:22;;;;;;;2.70;2.50;;;14.50;99.90;;;;;;5022691;28;20193;-82
2021/10/21 04:40:48;;;;;;;3.43;3.13;;;14.60;99.90;;;;;;5021992;28;20405;-82
2021/10/21 04:43:14;;;;;;;3.37;3.07;;;14.50;99.90;;;;;;5021974;28;20161;-82
2021/10/21 04:45:40;;;;;;;2.80;2.60;;;14.60;99.90;;;;;;5021572;28;20192;-81
2021/10/21 04:48:06;;;;;;;8.00;2.70;;;14.80;99.90;;;;;;5021697;28;20240;-81
2021/10/21 04:50:34;;;;;;;2.87;2.67;;;15.00;99.90;;;;;;5021820;28;20446;-81
2021/10/21 04:53:00;;;;;;;2.47;2.20;;;15.10;99.90;;;;;;5022076;28;20163;-81
2021/10/21 04:55:26;;;;;;;3.20;2.57;;;15.10;99.90;;;;;;5022389;28;20430;-83
2021/10/21 04:57:52;;;;;;;2.37;2.17;;;15.20;99.90;;;;;;5022160;28;20180;-83
2021/10/21 05:00:19;;;;;;;2.40;2.20;;;15.10;99.90;;;;;;5022504;28;20397;-82
2021/10/21 05:02:46;;;;;;;4.40;2.50;;;15.20;99.90;;;;;;5021040;28;20405;-82
2021/10/21 05:05:12;;;;;;;2.30;2.10;;;15.20;99.90;;;;;;5023590;28;20396;-82
2021/10/21 05:07:38;;;;;;;2.03;1.93;;;15.10;99.90;;;;;;5022268;28;20487;-82
2021/10/21 05:10:05;;;;;;;3.43;2.47;;;15.20;99.90;;;;;;5021743;28;20480;-82
2021/10/21 05:12:32;;;;;;;2.73;2.53;;;15.20;99.90;;;;;;5020730;28;20636;-82
2021/10/21 05:15:01;;;;;;;1.60;1.50;;;15.20;99.90;;;;;;5035895;28;20446;-82
2021/10/21 05:17:27;;;;;;;4.70;1.40;;;15.40;99.90;;;;;;5019094;28;20435;-81
2021/10/21 05:19:52;;;;;;;2.57;1.73;;;15.30;99.90;;;;;;5020753;28;20173;-82
2021/10/21 05:22:18;;;;;;;1.73;1.63;;;15.30;99.90;;;;;;5018549;28;20892;-81
2021/10/21 05:24:44;;;;;;;1.40;1.30;;;15.40;99.90;;;;;;5021008;28;20179;-82
2021/10/21 05:27:12;;;;;;;1.60;1.50;;;15.20;99.90;;;;;;5021148;28;20626;-82
2021/10/21 05:29:38;;;;;;;1.50;1.40;;;15.10;99.90;;;;;;5019310;28;20205;-83
2021/10/21 05:32:07;;;;;;;1.60;1.47;;;15.00;99.90;;;;;;5020785;28;20444;-82
2021/10/21 05:34:35;;;;;;;3.57;1.47;;;15.00;99.90;;;;;;5019405;28;20480;-81
2021/10/21 05:37:02;;;;;;;3.83;1.70;;;15.00;99.90;;;;;;5021057;28;20432;-82
2021/10/21 05:39:30;;;;;;;1.30;1.20;;;14.90;99.90;;;;;;5025155;28;20548;-79
2021/10/21 05:41:56;;;;;;;1.97;1.40;;;14.70;99.90;;;;;;5027312;28;20545;-80
2021/10/21 05:44:22;;;;;;;6.53;1.80;;;14.80;99.90;;;;;;5032554;28;20440;-82
2021/10/21 05:46:49;;;;;;;7.40;1.63;;;14.80;99.90;;;;;;5033900;28;20440;-82
2021/10/21 05:49:16;;;;;;;1.27;1.17;;;14.70;99.90;;;;;;5028386;28;20463;-80
2021/10/21 05:51:42;;;;;;;1.50;1.40;;;14.60;99.90;;;;;;5030160;28;20448;-82
2021/10/21 05:54:07;;;;;;;1.47;1.37;;;14.60;99.90;;;;;;5035726;28;20383;-81
2021/10/21 05:56:33;;;;;;;1.60;1.50;;;14.60;99.90;;;;;;5032515;28;20893;-80
2021/10/21 05:58:59;;;;;;;2.10;1.57;;;14.60;99.90;;;;;;5025347;28;20177;-79
2021/10/21 06:01:25;;;;;;;1.20;1.10;;;14.60;99.90;;;;;;5032774;28;20221;-82
2021/10/21 06:03:51;;;;;;;4.60;1.30;;;14.50;99.90;;;;;;5012968;28;20181;-82
2021/10/21 06:06:16;;;;;;;1.50;1.20;;;14.40;99.90;;;;;;5019876;28;20181;-83
2021/10/21 06:08:44;;;;;;;3.60;1.57;;;14.40;99.90;;;;;;5019886;28;20250;-82
2021/10/21 06:11:11;;;;;;;1.40;1.30;;;14.30;99.90;;;;;;5022936;28;20189;-82
2021/10/21 06:13:37;;;;;;;1.87;1.60;;;14.40;99.90;;;;;;5016928;28;20470;-82
2021/10/21 06:16:04;;;;;;;2.20;1.30;;;14.30;99.90;;;;;;5009859;28;20523;-82
2021/10/21 06:18:30;;;;;;;2.60;1.63;;;14.20;99.90;;;;;;5025578;28;20448;-82
2021/10/21 06:20:57;;;;;;;3.13;1.43;;;14.20;99.90;;;;;;5015872;28;20505;-82
2021/10/21 06:23:24;;;;;;;1.90;1.40;;;14.30;99.90;;;;;;5015617;28;20442;-82
2021/10/21 06:25:50;;;;;;;5.80;2.13;;;14.30;99.90;;;;;;5009370;28;20504;-83
2021/10/21 06:28:16;;;;;;;4.50;1.80;;;14.30;99.90;;;;;;5013384;28;20491;-82
2021/10/21 06:30:42;;;;;;;7.37;2.17;;;14.20;99.90;;;;;;5002352;28;20177;-82
2021/10/21 06:33:09;;;;;;;1.93;1.50;;;14.10;99.90;;;;;;5005170;28;20192;-82
2021/10/21 06:35:35;;;;;;;7.63;1.97;;;14.10;99.90;;;;;;5023115;28;20475;-82
2021/10/21 06:38:00;;;;;;;3.93;1.30;;;14.20;99.90;;;;;;5022917;28;20447;-82
2021/10/21 06:40:27;;;;;;;5.67;1.70;;;14.20;99.90;;;;;;5036107;28;20174;-81
2021/10/21 06:42:53;;;;;;;3.13;1.40;;;14.20;99.90;;;;;;5025359;28;20192;-80
2021/10/21 06:45:20;;;;;;;2.73;1.40;;;14.20;99.90;;;;;;5019345;28;20448;-82
2021/10/21 06:47:46;;;;;;;4.80;1.50;;;14.10;99.90;;;;;;5017512;28;20482;-80
2021/10/21 06:50:13;;;;;;;1.60;1.20;;;14.10;99.90;;;;;;5019985;28;20475;-82
2021/10/21 06:52:43;;;;;;;3.63;1.53;;;14.10;99.90;;;;;;5016329;28;20428;-81
2021/10/21 06:55:09;;;;;;;3.63;1.70;;;14.20;99.90;;;;;;5012223;28;20444;-81
2021/10/21 06:57:57;;;;;;;8.30;1.80;;;14.10;99.90;;;;;;5015007;28;20526;-82
2021/10/21 07:00:26;;;;;;;5.00;1.73;;;14.10;99.90;;;;;;5024545;28;20436;-82
2021/10/21 07:02:52;;;;;;;1.20;1.10;;;14.10;99.90;;;;;;5023619;28;20462;-81
2021/10/21 07:05:22;;;;;;;8.77;2.20;;;14.10;99.90;;;;;;5022558;28;20452;-81
2021/10/21 07:07:48;;;;;;;4.70;1.40;;;14.10;99.90;;;;;;5024369;28;20436;-81
2021/10/21 07:10:13;;;;;;;6.20;2.17;;;14.20;99.90;;;;;;5021741;28;20463;-80
2021/10/21 07:12:42;;;;;;;1.67;1.20;;;14.10;99.90;;;;;;5025441;28;20185;-80
2021/10/21 07:15:09;;;;;;;4.30;2.60;;;14.20;99.90;;;;;;5022839;28;20192;-79
2021/10/21 07:17:36;;;;;;;1.90;1.27;;;14.30;99.90;;;;;;5021151;28;20467;-81
2021/10/21 07:20:04;;;;;;;3.33;1.70;;;14.30;99.90;;;;;;5023275;28;20428;-79
2021/10/21 07:22:31;;;;;;;2.77;1.40;;;14.30;99.90;;;;;;5002458;28;20506;-78
2021/10/21 07:24:57;;;;;;;3.47;1.80;;;14.30;99.90;;;;;;5025578;28;20448;-80
2021/10/21 07:27:24;;;;;;;2.67;1.50;;;14.20;99.90;;;;;;5027921;28;20431;-82
2021/10/21 07:29:50;;;;;;;5.37;1.60;;;14.30;99.90;;;;;;5031553;28;20471;-81
2021/10/21 07:32:16;;;;;;;1.57;1.40;;;14.30;99.90;;;;;;5028665;28;20439;-79
2021/10/21 07:34:42;;;;;;;5.40;2.07;;;14.30;99.90;;;;;;5029297;28;20455;-79
2021/10/21 07:37:10;;;;;;;3.90;1.93;;;14.30;99.90;;;;;;5013868;28;20431;-82
2021/10/21 07:39:37;;;;;;;3.90;1.30;;;14.30;99.90;;;;;;5030906;28;20441;-82
2021/10/21 07:42:03;;;;;;;4.63;2.47;;;14.30;99.90;;;;;;5030360;28;20471;-82
2021/10/21 07:44:31;;;;;;;3.77;1.73;;;14.30;99.90;;;;;;5033382;28;20455;-82
2021/10/21 07:46:59;;;;;;;4.30;1.83;;;14.30;99.90;;;;;;5031778;28;20463;-82
2021/10/21 07:49:25;;;;;;;4.47;1.70;;;14.30;99.90;;;;;;5031279;28;20467;-80
2021/10/21 07:51:51;;;;;;;3.30;1.50;;;14.30;99.90;;;;;;5029220;28;20463;-82
2021/10/21 07:54:16;;;;;;;2.50;1.70;;;14.30;99.90;;;;;;5032667;28;20538;-81
2021/10/21 07:56:42;;;;;;;7.03;1.60;;;14.20;99.90;;;;;;5009992;28;20214;-81
2021/10/21 07:59:08;;;;;;;1.27;1.10;;;14.30;99.90;;;;;;4974939;28;20201;-82
2021/10/21 08:01:35;;;;;;;5.97;2.23;;;14.40;99.90;;;;;;5011035;28;20624;-82
2021/10/21 08:04:01;;;;;;;9.87;1.97;;;14.40;99.90;;;;;;5003414;28;20181;-80
2021/10/21 08:06:29;;;;;;;3.00;1.67;;;14.40;99.90;;;;;;5014947;28;20513;-82
2021/10/21 08:08:56;;;;;;;4.00;1.67;;;14.40;99.90;;;;;;5005792;28;20498;-80
2021/10/21 08:11:22;;;;;;;3.80;1.53;;;14.20;99.90;;;;;;5013962;28;20448;-82
2021/10/21 08:13:48;;;;;;;2.60;1.87;;;14.20;99.90;;;;;;5007208;28;20437;-81
2021/10/21 08:16:14;;;;;;;2.27;1.50;;;14.20;99.90;;;;;;5011445;28;20198;-82
2021/10/21 08:18:40;;;;;;;2.07;1.43;;;14.10;99.90;;;;;;5011115;28;20240;-81
2021/10/21 08:21:06;;;;;;;6.30;1.73;;;14.10;99.90;;;;;;5009106;28;20709;-81
2021/10/21 08:23:35;;;;;;;1.07;1.00;;;14.20;99.90;;;;;;5012427;28;20464;-82
2021/10/21 08:26:00;;;;;;;3.17;1.23;;;14.20;99.90;;;;;;5013011;28;20496;-81
2021/10/21 08:28:26;;;;;;;7.43;1.53;;;14.20;99.90;;;;;;5022265;28;20257;-80
2021/10/21 08:30:52;;;;;;;6.43;1.60;;;13.90;99.90;;;;;;5028893;28;20177;-81
2021/10/21 08:33:18;;;;;;;8.40;1.40;;;14.00;99.90;;;;;;5008266;28;20191;-82
2021/10/21 08:35:44;;;;;;;6.60;1.20;;;14.00;99.90;;;;;;5028496;28;20242;-82
2021/10/21 08:38:10;;;;;;;1.57;1.17;;;13.80;99.90;;;;;;5027581;28;20443;-81
2021/10/21 08:40:37;;;;;;;4.87;1.10;;;13.80;99.90;;;;;;5027508;28;20241;-81
2021/10/21 08:43:06;;;;;;;1.00;0.90;;;13.90;99.90;;;;;;5034346;28;20451;-81
2021/10/21 08:45:33;;;;;;;3.70;2.17;;;13.90;99.90;;;;;;5030836;28;20471;-80
2021/10/21 08:48:05;;;;;;;1.53;1.10;;;13.90;99.90;;;;;;5042061;28;20529;-81
2021/10/21 08:50:33;;;;;;;2.10;1.40;;;13.80;99.90;;;;;;5004013;28;20428;-82
2021/10/21 08:53:03;;;;;;;6.20;1.30;;;13.80;99.90;;;;;;5008823;28;20428;-82
2021/10/21 08:55:30;;;;;;;1.67;1.37;;;13.90;99.90;;;;;;5033146;28;20464;-82
2021/10/21 08:57:56;;;;;;;2.60;1.40;;;14.00;99.90;;;;;;5033221;28;20487;-80
2021/10/21 09:00:24;;;;;;;1.20;1.10;;;14.40;99.90;;;;;;5046607;28;20432;-81
2021/10/21 09:02:56;;;;;;;2.27;1.40;;;14.20;99.90;;;;;;5014134;28;20484;-81
2021/10/21 09:05:31;;;;;;;4.27;1.20;;;14.10;99.90;;;;;;5037027;28;20423;-81
2021/10/21 09:08:18;;;;;;;2.60;1.03;;;14.10;99.90;;;;;;5009992;28;20440;-82
2021/10/21 09:10:48;;;;;;;1.17;1.07;;;14.60;99.90;;;;;;5030531;28;20503;-82
2021/10/21 09:13:31;;;;;;;1.23;1.13;;;15.30;99.90;;;;;;5017820;28;20436;-81
2021/10/21 09:16:00;;;;;;;0.90;0.90;;;15.90;99.90;;;;;;5031098;28;20510;-80
2021/10/21 09:18:40;;;;;;;3.83;1.07;;;15.60;99.90;;;;;;5032699;28;20472;-81
2021/10/21 09:21:05;;;;;;;1.10;1.00;;;16.00;99.90;;;;;;5027461;28;20456;-81
2021/10/21 09:23:34;;;;;;;1.87;1.10;;;16.40;99.90;;;;;;5031068;28;20444;-80
2021/10/21 09:26:09;;;;;;;1.00;0.90;;;16.10;99.90;;;;;;5026343;28;20202;-81
2021/10/21 09:28:41;;;;;;;1.73;1.20;;;15.90;99.90;;;;;;5027439;28;20455;-81
2021/10/21 09:31:30;;;;;;;6.23;1.10;;;16.00;99.90;;;;;;5003421;28;20460;-81
2021/10/21 09:33:58;;;;;;;1.27;1.00;;;16.20;99.90;;;;;;5002347;28;20439;-80
2021/10/21 09:36:27;;;;;;;1.20;1.10;;;15.50;99.90;;;;;;4961032;28;20191;-81
2021/10/21 09:38:57;;;;;;;4.20;1.07;;;15.40;99.90;;;;;;4926493;29;20987;-81
2021/10/21 09:41:26;;;;;;;1.87;1.67;;;15.30;99.90;;;;;;4883358;29;21518;-80
2021/10/21 09:43:57;;;;;;;0.90;0.90;;;14.70;99.90;;;;;;4867119;29;20438;-80
2021/10/21 09:46:42;;;;;;;3.13;1.20;;;14.60;99.90;;;;;;4882218;29;20441;-80
2021/10/21 09:49:31;;;;;;;1.50;1.40;;;14.40;99.90;;;;;;4884356;29;20487;-80
2021/10/21 09:52:01;;;;;;;1.57;0.93;;;14.70;99.90;;;;;;4838225;29;20441;-81
2021/10/21 09:55:12;;;;;;;2.03;1.10;;;14.70;99.90;;;;;;4806185;29;20429;-80
2021/10/21 09:57:41;;;;;;;2.40;1.00;;;14.50;99.90;;;;;;4813981;29;20483;-80
2021/10/21 10:00:15;;;;;;;0.90;0.90;;;14.30;99.90;;;;;;4815327;29;20452;-80
2021/10/21 10:02:50;;;;;;;1.17;1.07;;;14.10;99.90;;;;;;4780917;29;20577;-81
2021/10/21 10:05:17;;;;;;;1.47;1.37;;;14.00;99.90;;;;;;4777704;29;20980;-81
2021/10/21 10:07:43;;;;;;;3.43;1.00;;;14.00;99.90;;;;;;4796245;29;20536;-79
2021/10/21 10:10:14;;;;;;;4.57;1.20;;;13.90;99.90;;;;;;4814440;29;20615;-81
2021/10/21 10:13:10;;;;;;;1.40;1.30;;;13.90;99.90;;;;;;4796369;29;20441;-80
2021/10/21 10:15:43;;;;;;;1.40;1.00;;;13.90;99.90;;;;;;4802975;29;20645;-80
2021/10/21 10:18:30;;;;;;;3.23;1.10;;;14.00;99.90;;;;;;4815616;29;20433;-79
2021/10/21 10:21:09;;;;;;;1.10;1.00;;;14.40;99.90;;;;;;4856800;29;20462;-81
2021/10/21 10:24:05;;;;;;;1.20;1.10;;;14.50;99.90;;;;;;4880378;29;20462;-82
2021/10/21 10:27:01;;;;;;;1.17;1.00;;;14.60;99.90;;;;;;4820707;29;20622;-81
2021/10/21 10:29:48;;;;;;;1.47;1.23;;;14.20;99.90;;;;;;4833285;29;20471;-81
2021/10/21 10:32:38;;;;;;;1.47;1.37;;;14.20;99.90;;;;;;4851238;29;20537;-81
2021/10/21 10:35:09;;;;;;;1.10;1.00;;;14.20;99.90;;;;;;4866281;29;20479;-81
2021/10/21 10:37:58;;;;;;;1.33;1.20;;;14.10;99.90;;;;;;4863734;29;20444;-81
2021/10/21 10:40:57;;;;;;;1.10;1.00;;;13.90;99.90;;;;;;4847647;29;20463;-81
2021/10/21 10:43:40;;;;;;;1.10;1.00;;;14.50;99.90;;;;;;4832521;29;20469;-80
2021/10/21 10:46:42;;;;;;;1.37;1.27;;;14.60;99.90;;;;;;4851659;29;20440;-81
2021/10/21 10:49:42;;;;;;;1.10;1.00;;;14.30;99.90;;;;;;4833488;29;21092;-80
2021/10/21 10:52:15;;;;;;;1.13;1.00;;;14.00;99.90;;;;;;4869982;29;20463;-79
2021/10/21 10:55:03;;;;;;;1.23;1.13;;;13.90;99.90;;;;;;4884706;29;20443;-79
2021/10/21 10:57:51;;;;;;;1.33;1.00;;;13.90;99.90;;;;;;4877994;29;20529;-82
2021/10/21 11:00:47;;;;;;;1.20;1.10;;;14.30;99.90;;;;;;4882404;29;20477;-82
2021/10/21 11:03:42;;;;;;;2.03;1.10;;;14.70;99.90;;;;;;4884744;29;20564;-80
2021/10/21 11:06:24;;;;;;;1.00;0.90;;;14.30;99.90;;;;;;4895667;29;20454;-80
2021/10/21 11:08:57;;;;;;;3.00;1.60;;;14.20;99.90;;;;;;4894690;29;20477;-77
2021/10/21 11:11:51;;;;;;;2.93;1.20;;;14.10;99.90;;;;;;4882537;29;20445;-80
2021/10/21 11:14:25;;;;;;;1.23;1.13;;;14.00;99.90;;;;;;4838404;29;20449;-80
2021/10/21 11:16:56;;;;;;;2.00;1.30;;;14.20;99.90;;;;;;4857824;29;20566;-81
2021/10/21 11:19:46;;;;;;;1.30;1.20;;;14.40;99.90;;;;;;4843681;29;20444;-80
2021/10/21 11:22:40;;;;;;;1.20;1.10;;;14.40;99.90;;;;;;4852688;29;20476;-79
2021/10/21 11:25:29;;;;;;;1.93;1.60;;;14.50;99.90;;;;;;4859042;29;20516;-79
2021/10/21 11:28:02;;;;;;;2.10;1.47;;;14.60;99.90;;;;;;4903037;29;20476;-80
2021/10/21 11:30:29;;;;;;;3.07;1.10;;;14.60;99.90;;;;;;4881074;29;21825;-80
2021/10/21 11:32:59;;;;;;;2.60;1.50;;;14.60;99.90;;;;;;4910317;29;20453;-82
2021/10/21 11:35:28;;;;;;;1.30;1.20;;;14.60;99.90;;;;;;4895391;29;20489;-81
2021/10/21 11:37:58;;;;;;;1.10;1.00;;;14.60;99.90;;;;;;4940917;29;20812;-82
2021/10/21 11:40:35;;;;;;;1.87;1.20;;;14.60;99.90;;;;;;4937236;29;20491;-82
2021/10/21 11:43:05;;;;;;;1.70;1.27;;;14.90;99.90;;;;;;4929363;29;20520;-81
2021/10/21 11:45:38;;;;;;;1.80;1.33;;;15.00;99.90;;;;;;4916016;29;20432;-80
2021/10/21 11:48:08;;;;;;;2.67;1.20;;;15.00;99.90;;;;;;4923237;28;20778;-82
2021/10/21 11:50:39;;;;;;;1.53;1.30;;;15.70;99.90;;;;;;4955680;28;20536;-83
2021/10/21 11:53:10;;;;;;;2.00;1.43;;;15.90;99.90;;;;;;4973461;28;20449;-80
2021/10/21 11:55:38;;;;;;;4.70;1.30;;;15.70;99.90;;;;;;4968831;28;20438;-82
2021/10/21 11:58:24;;;;;;;3.63;1.50;;;15.30;99.90;;;;;;4973597;28;20453;-82
2021/10/21 12:01:05;;;;;;;2.60;1.30;;;16.30;99.90;;;;;;5012428;28;20529;-82
2021/10/21 12:03:39;;;;;;;1.63;1.10;;;16.90;99.90;;;;;;5014885;28;20538;-82
2021/10/21 12:06:06;;;;;;;1.90;1.50;;;17.10;99.90;;;;;;5007311;28;20935;-81
2021/10/21 12:08:33;;;;;;;1.40;1.30;;;17.00;99.90;;;;;;5022519;28;20468;-82
2021/10/21 12:11:07;;;;;;;2.70;1.40;;;17.00;99.90;;;;;;5016039;28;20436;-81
2021/10/21 12:13:36;;;;;;;4.87;1.33;;;17.40;99.90;;;;;;5014350;28;20995;-82
2021/10/21 12:16:10;;;;;;;6.80;2.00;;;18.00;99.90;;;;;;4996774;28;20447;-82
2021/10/21 12:18:37;;;;;;;1.43;1.33;;;17.10;99.90;;;;;;5015126;28;20479;-82
2021/10/21 12:21:06;;;;;;;1.57;1.20;;;16.30;99.90;;;;;;5031580;28;20536;-82
2021/10/21 12:23:34;;;;;;;1.47;1.37;;;16.20;99.90;;;;;;5036350;28;20783;-82
2021/10/21 12:26:05;;;;;;;2.40;1.47;;;16.40;99.90;;;;;;5016532;28;20800;-80
2021/10/21 12:28:47;;;;;;;1.73;1.43;;;16.30;99.90;;;;;;5015439;28;20460;-82
2021/10/21 12:31:21;;;;;;;2.50;1.20;;;16.40;99.90;;;;;;5016966;28;20431;-82
2021/10/21 12:33:51;;;;;;;2.27;1.40;;;16.00;99.90;;;;;;5012780;28;20426;-82
2021/10/21 12:36:21;;;;;;;1.43;1.33;;;15.10;99.90;;;;;;5014155;28;20515;-82
2021/10/21 12:39:12;;;;;;;1.30;1.10;;;15.30;99.90;;;;;;4992042;28;20831;-82
2021/10/21 12:42:00;;;;;;;1.93;1.33;;;15.40;99.90;;;;;;4978612;28;20979;-80
2021/10/21 12:44:32;;;;;;;1.73;1.50;;;15.40;99.90;;;;;;4980965;28;20436;-80
2021/10/21 12:47:24;;;;;;;2.13;1.60;;;15.40;99.90;;;;;;4989723;28;20436;-81
2021/10/21 12:50:11;;;;;;;2.27;1.40;;;15.30;99.90;;;;;;4983745;28;20468;-80
2021/10/21 12:52:43;;;;;;;4.30;1.20;;;15.10;99.90;;;;;;4999284;28;20455;-80
2021/10/21 12:55:16;;;;;;;1.50;1.40;;;14.90;99.90;;;;;;4986593;28;20454;-79
2021/10/21 12:57:50;;;;;;;1.50;1.20;;;14.80;99.90;;;;;;4983745;28;20488;-81